sensor_id;sensor_type;location;lat;lon;timestamp;P1;durP1;ratioP1;P2;durP2;ratioP2
55776;SDS011;54079;44.540;18.784;2022-07-10T00:00:04;3.67;;;1.98;;
55776;SDS011;54079;44.540;18.784;2022-07-10T00:05:02;3.30;;;1.75;;
55776;SDS011;54079;44.540;18.784;2022-07-10T00:07:28;2.88;;;1.67;;
55776;SDS011;54079;44.540;18.784;2022-07-10T00:09:54;3.60;;;1.55;;
55776;SDS011;54079;44.540;18.784;2022-07-10T00:12:20;3.15;;;1.75;;
55776;SDS011;54079;44.540;18.784;2022-07-10T00:14:46;3.50;;;1.83;;
55776;SDS011;54079;44.540;18.784;2022-07-10T00:17:12;4.28;;;1.90;;
55776;SDS011;54079;44.540;18.784;2022-07-10T00:19:38;3.30;;;1.77;;
55776;SDS011;54079;44.540;18.784;2022-07-10T00:22:04;2.55;;;1.40;;
55776;SDS011;54079;44.540;18.784;2022-07-10T00:24:31;2.30;;;1.50;;
55776;SDS011;54079;44.540;18.784;2022-07-10T00:26:57;1.55;;;1.30;;
55776;SDS011;54079;44.540;18.784;2022-07-10T00:29:24;2.22;;;1.35;;
55776;SDS011;54079;44.540;18.784;2022-07-10T00:31:50;2.50;;;1.63;;
55776;SDS011;54079;44.540;18.784;2022-07-10T00:34:16;1.65;;;1.40;;
55776;SDS011;54079;44.540;18.784;2022-07-10T00:36:42;2.15;;;1.23;;
55776;SDS011;54079;44.540;18.784;2022-07-10T00:39:09;3.38;;;1.58;;
55776;SDS011;54079;44.540;18.784;2022-07-10T00:41:35;2.22;;;1.45;;
55776;SDS011;54079;44.540;18.784;2022-07-10T00:44:02;4.90;;;1.70;;
55776;SDS011;54079;44.540;18.784;2022-07-10T00:46:29;2.03;;;1.60;;
55776;SDS011;54079;44.540;18.784;2022-07-10T00:48:55;1.58;;;1.25;;
55776;SDS011;54079;44.540;18.784;2022-07-10T00:51:24;3.85;;;1.35;;
55776;SDS011;54079;44.540;18.784;2022-07-10T00:53:52;2.38;;;1.23;;
55776;SDS011;54079;44.540;18.784;2022-07-10T00:56:19;2.45;;;1.50;;
55776;SDS011;54079;44.540;18.784;2022-07-10T00:58:49;6.45;;;2.10;;
55776;SDS011;54079;44.540;18.784;2022-07-10T01:01:16;2.33;;;1.33;;
55776;SDS011;54079;44.540;18.784;2022-07-10T01:03:42;3.60;;;1.63;;
55776;SDS011;54079;44.540;18.784;2022-07-10T01:06:10;4.13;;;1.50;;
55776;SDS011;54079;44.540;18.784;2022-07-10T01:08:37;3.13;;;1.85;;
55776;SDS011;54079;44.540;18.784;2022-07-10T01:11:03;4.72;;;1.90;;
55776;SDS011;54079;44.540;18.784;2022-07-10T01:13:29;3.72;;;1.50;;
55776;SDS011;54079;44.540;18.784;2022-07-10T01:15:55;3.97;;;1.98;;
55776;SDS011;54079;44.540;18.784;2022-07-10T01:18:22;4.50;;;1.67;;
55776;SDS011;54079;44.540;18.784;2022-07-10T01:20:53;4.70;;;1.83;;
55776;SDS011;54079;44.540;18.784;2022-07-10T01:23:19;5.05;;;2.17;;
55776;SDS011;54079;44.540;18.784;2022-07-10T01:25:46;4.13;;;2.70;;
55776;SDS011;54079;44.540;18.784;2022-07-10T01:28:13;4.15;;;1.83;;
55776;SDS011;54079;44.540;18.784;2022-07-10T01:30:39;3.70;;;1.73;;
55776;SDS011;54079;44.540;18.784;2022-07-10T01:33:05;3.13;;;1.85;;
55776;SDS011;54079;44.540;18.784;2022-07-10T01:35:31;2.97;;;2.13;;
55776;SDS011;54079;44.540;18.784;2022-07-10T01:37:57;3.33;;;1.80;;
55776;SDS011;54079;44.540;18.784;2022-07-10T01:40:23;7.70;;;2.03;;
55776;SDS011;54079;44.540;18.784;2022-07-10T01:42:49;4.75;;;1.67;;
55776;SDS011;54079;44.540;18.784;2022-07-10T01:45:15;3.80;;;2.60;;
55776;SDS011;54079;44.540;18.784;2022-07-10T01:47:42;5.22;;;2.65;;
55776;SDS011;54079;44.540;18.784;2022-07-10T01:50:09;5.20;;;2.45;;
55776;SDS011;54079;44.540;18.784;2022-07-10T01:52:35;3.78;;;2.42;;
55776;SDS011;54079;44.540;18.784;2022-07-10T01:55:02;3.83;;;2.00;;
55776;SDS011;54079;44.540;18.784;2022-07-10T01:57:28;4.88;;;2.03;;
55776;SDS011;54079;44.540;18.784;2022-07-10T01:59:54;3.55;;;2.28;;
55776;SDS011;54079;44.540;18.784;2022-07-10T02:02:20;5.57;;;1.85;;
55776;SDS011;54079;44.540;18.784;2022-07-10T02:04:46;3.30;;;2.00;;
55776;SDS011;54079;44.540;18.784;2022-07-10T02:07:16;6.20;;;2.67;;
55776;SDS011;54079;44.540;18.784;2022-07-10T02:09:44;3.05;;;2.25;;
55776;SDS011;54079;44.540;18.784;2022-07-10T02:12:11;4.72;;;2.08;;
55776;SDS011;54079;44.540;18.784;2022-07-10T02:14:38;3.22;;;2.03;;
55776;SDS011;54079;44.540;18.784;2022-07-10T02:17:05;3.83;;;2.38;;
55776;SDS011;54079;44.540;18.784;2022-07-10T02:19:32;8.80;;;2.90;;
55776;SDS011;54079;44.540;18.784;2022-07-10T02:21:58;4.70;;;2.38;;
55776;SDS011;54079;44.540;18.784;2022-07-10T02:24:24;3.30;;;2.30;;
55776;SDS011;54079;44.540;18.784;2022-07-10T02:26:51;6.32;;;3.50;;
55776;SDS011;54079;44.540;18.784;2022-07-10T02:29:17;5.38;;;2.70;;
55776;SDS011;54079;44.540;18.784;2022-07-10T02:31:43;5.13;;;2.92;;
55776;SDS011;54079;44.540;18.784;2022-07-10T02:34:10;4.00;;;2.33;;
55776;SDS011;54079;44.540;18.784;2022-07-10T02:36:37;5.90;;;3.42;;
55776;SDS011;54079;44.540;18.784;2022-07-10T02:39:04;6.82;;;2.72;;
55776;SDS011;54079;44.540;18.784;2022-07-10T02:41:31;5.88;;;3.28;;
55776;SDS011;54079;44.540;18.784;2022-07-10T02:43:57;3.78;;;2.47;;
55776;SDS011;54079;44.540;18.784;2022-07-10T02:46:24;5.20;;;2.50;;
55776;SDS011;54079;44.540;18.784;2022-07-10T02:48:50;5.60;;;2.90;;
55776;SDS011;54079;44.540;18.784;2022-07-10T02:51:16;3.15;;;2.38;;
55776;SDS011;54079;44.540;18.784;2022-07-10T02:53:42;5.35;;;2.63;;
55776;SDS011;54079;44.540;18.784;2022-07-10T02:56:08;6.57;;;2.97;;
55776;SDS011;54079;44.540;18.784;2022-07-10T02:58:34;5.25;;;3.10;;
55776;SDS011;54079;44.540;18.784;2022-07-10T03:01:00;4.57;;;2.85;;
55776;SDS011;54079;44.540;18.784;2022-07-10T03:03:26;3.67;;;2.78;;
55776;SDS011;54079;44.540;18.784;2022-07-10T03:05:52;5.10;;;2.83;;
55776;SDS011;54079;44.540;18.784;2022-07-10T03:08:17;5.25;;;2.80;;
55776;SDS011;54079;44.540;18.784;2022-07-10T03:10:43;6.40;;;3.33;;
55776;SDS011;54079;44.540;18.784;2022-07-10T03:13:09;6.82;;;3.65;;
55776;SDS011;54079;44.540;18.784;2022-07-10T03:15:35;6.80;;;3.75;;
55776;SDS011;54079;44.540;18.784;2022-07-10T03:18:01;6.75;;;3.97;;
55776;SDS011;54079;44.540;18.784;2022-07-10T03:20:27;7.57;;;4.18;;
55776;SDS011;54079;44.540;18.784;2022-07-10T03:22:53;8.75;;;3.88;;
55776;SDS011;54079;44.540;18.784;2022-07-10T03:25:19;7.15;;;3.53;;
55776;SDS011;54079;44.540;18.784;2022-07-10T03:27:45;5.57;;;3.53;;
55776;SDS011;54079;44.540;18.784;2022-07-10T03:30:11;7.28;;;3.45;;
55776;SDS011;54079;44.540;18.784;2022-07-10T03:32:37;7.65;;;3.28;;
55776;SDS011;54079;44.540;18.784;2022-07-10T03:35:03;5.55;;;2.78;;
55776;SDS011;54079;44.540;18.784;2022-07-10T03:37:29;5.63;;;2.13;;
55776;SDS011;54079;44.540;18.784;2022-07-10T03:39:55;6.45;;;3.03;;
55776;SDS011;54079;44.540;18.784;2022-07-10T03:42:21;5.00;;;3.13;;
55776;SDS011;54079;44.540;18.784;2022-07-10T03:44:47;7.45;;;2.60;;
55776;SDS011;54079;44.540;18.784;2022-07-10T03:47:13;5.18;;;2.45;;
55776;SDS011;54079;44.540;18.784;2022-07-10T03:49:39;3.72;;;2.45;;
55776;SDS011;54079;44.540;18.784;2022-07-10T03:52:06;5.72;;;2.78;;
55776;SDS011;54079;44.540;18.784;2022-07-10T03:54:33;4.47;;;2.90;;
55776;SDS011;54079;44.540;18.784;2022-07-10T03:56:59;4.75;;;2.90;;
55776;SDS011;54079;44.540;18.784;2022-07-10T03:59:44;3.67;;;2.90;;
55776;SDS011;54079;44.540;18.784;2022-07-10T04:02:10;6.95;;;3.95;;
55776;SDS011;54079;44.540;18.784;2022-07-10T04:04:36;6.90;;;3.72;;
55776;SDS011;54079;44.540;18.784;2022-07-10T04:07:02;6.45;;;3.03;;
55776;SDS011;54079;44.540;18.784;2022-07-10T04:09:29;5.35;;;2.83;;
55776;SDS011;54079;44.540;18.784;2022-07-10T04:11:55;4.30;;;2.70;;
55776;SDS011;54079;44.540;18.784;2022-07-10T04:14:21;7.82;;;3.25;;
55776;SDS011;54079;44.540;18.784;2022-07-10T04:16:47;6.55;;;3.45;;
55776;SDS011;54079;44.540;18.784;2022-07-10T04:19:13;3.95;;;2.60;;
55776;SDS011;54079;44.540;18.784;2022-07-10T04:21:40;5.65;;;2.80;;
55776;SDS011;54079;44.540;18.784;2022-07-10T04:24:06;5.10;;;3.25;;
55776;SDS011;54079;44.540;18.784;2022-07-10T04:26:32;8.00;;;4.10;;
55776;SDS011;54079;44.540;18.784;2022-07-10T04:28:58;5.32;;;3.22;;
55776;SDS011;54079;44.540;18.784;2022-07-10T04:31:24;5.53;;;3.15;;
55776;SDS011;54079;44.540;18.784;2022-07-10T04:33:50;5.60;;;2.75;;
55776;SDS011;54079;44.540;18.784;2022-07-10T04:36:16;4.95;;;3.35;;
55776;SDS011;54079;44.540;18.784;2022-07-10T04:38:42;6.55;;;3.58;;
55776;SDS011;54079;44.540;18.784;2022-07-10T04:41:08;5.72;;;3.33;;
55776;SDS011;54079;44.540;18.784;2022-07-10T04:43:34;7.15;;;3.28;;
55776;SDS011;54079;44.540;18.784;2022-07-10T04:46:00;5.47;;;3.60;;
55776;SDS011;54079;44.540;18.784;2022-07-10T04:48:26;5.90;;;3.15;;
55776;SDS011;54079;44.540;18.784;2022-07-10T04:50:53;8.57;;;5.22;;
55776;SDS011;54079;44.540;18.784;2022-07-10T04:53:19;5.88;;;3.42;;
55776;SDS011;54079;44.540;18.784;2022-07-10T04:55:45;4.13;;;2.75;;
55776;SDS011;54079;44.540;18.784;2022-07-10T04:58:11;3.38;;;2.40;;
55776;SDS011;54079;44.540;18.784;2022-07-10T05:00:37;6.30;;;2.63;;
55776;SDS011;54079;44.540;18.784;2022-07-10T05:03:03;4.13;;;2.60;;
55776;SDS011;54079;44.540;18.784;2022-07-10T05:05:29;5.28;;;3.40;;
55776;SDS011;54079;44.540;18.784;2022-07-10T05:07:55;8.35;;;5.32;;
55776;SDS011;54079;44.540;18.784;2022-07-10T05:10:21;6.13;;;4.70;;
55776;SDS011;54079;44.540;18.784;2022-07-10T05:12:47;4.45;;;2.90;;
55776;SDS011;54079;44.540;18.784;2022-07-10T05:15:14;4.32;;;2.92;;
55776;SDS011;54079;44.540;18.784;2022-07-10T05:17:40;5.40;;;3.28;;
55776;SDS011;54079;44.540;18.784;2022-07-10T05:20:06;7.47;;;3.15;;
55776;SDS011;54079;44.540;18.784;2022-07-10T05:22:32;4.68;;;2.85;;
55776;SDS011;54079;44.540;18.784;2022-07-10T05:24:58;5.13;;;3.28;;
55776;SDS011;54079;44.540;18.784;2022-07-10T05:27:24;5.35;;;3.40;;
55776;SDS011;54079;44.540;18.784;2022-07-10T05:29:52;5.00;;;3.08;;
55776;SDS011;54079;44.540;18.784;2022-07-10T05:32:18;4.50;;;3.35;;
55776;SDS011;54079;44.540;18.784;2022-07-10T05:34:44;5.82;;;3.38;;
55776;SDS011;54079;44.540;18.784;2022-07-10T05:37:10;4.93;;;3.70;;
55776;SDS011;54079;44.540;18.784;2022-07-10T05:39:36;4.88;;;3.28;;
55776;SDS011;54079;44.540;18.784;2022-07-10T05:42:02;10.35;;;4.20;;
55776;SDS011;54079;44.540;18.784;2022-07-10T05:44:28;8.45;;;3.78;;
55776;SDS011;54079;44.540;18.784;2022-07-10T05:46:54;6.72;;;4.00;;
55776;SDS011;54079;44.540;18.784;2022-07-10T05:49:20;6.47;;;4.45;;
55776;SDS011;54079;44.540;18.784;2022-07-10T05:51:46;10.48;;;6.05;;
55776;SDS011;54079;44.540;18.784;2022-07-10T05:54:12;9.70;;;6.20;;
55776;SDS011;54079;44.540;18.784;2022-07-10T05:56:38;7.90;;;5.07;;
55776;SDS011;54079;44.540;18.784;2022-07-10T05:59:04;15.40;;;12.68;;
55776;SDS011;54079;44.540;18.784;2022-07-10T06:01:30;9.32;;;6.85;;
55776;SDS011;54079;44.540;18.784;2022-07-10T06:03:56;11.57;;;7.97;;
55776;SDS011;54079;44.540;18.784;2022-07-10T06:06:22;9.48;;;6.03;;
55776;SDS011;54079;44.540;18.784;2022-07-10T06:08:48;16.70;;;8.07;;
55776;SDS011;54079;44.540;18.784;2022-07-10T06:11:14;32.97;;;29.58;;
55776;SDS011;54079;44.540;18.784;2022-07-10T06:13:41;10.60;;;7.95;;
55776;SDS011;54079;44.540;18.784;2022-07-10T06:16:07;25.13;;;22.55;;
55776;SDS011;54079;44.540;18.784;2022-07-10T06:18:32;11.32;;;8.85;;
55776;SDS011;54079;44.540;18.784;2022-07-10T06:20:59;8.13;;;6.65;;
55776;SDS011;54079;44.540;18.784;2022-07-10T06:23:25;11.18;;;10.05;;
55776;SDS011;54079;44.540;18.784;2022-07-10T06:25:51;15.02;;;13.43;;
55776;SDS011;54079;44.540;18.784;2022-07-10T06:28:17;6.82;;;4.75;;
55776;SDS011;54079;44.540;18.784;2022-07-10T06:30:43;8.50;;;7.45;;
55776;SDS011;54079;44.540;18.784;2022-07-10T06:33:11;9.18;;;8.20;;
55776;SDS011;54079;44.540;18.784;2022-07-10T06:35:37;5.50;;;4.88;;
55776;SDS011;54079;44.540;18.784;2022-07-10T06:38:03;10.38;;;9.25;;
55776;SDS011;54079;44.540;18.784;2022-07-10T06:40:29;6.55;;;4.38;;
55776;SDS011;54079;44.540;18.784;2022-07-10T06:43:00;4.05;;;3.28;;
55776;SDS011;54079;44.540;18.784;2022-07-10T06:45:26;8.00;;;5.30;;
55776;SDS011;54079;44.540;18.784;2022-07-10T06:47:52;7.20;;;6.50;;
55776;SDS011;54079;44.540;18.784;2022-07-10T06:50:21;5.47;;;4.97;;
55776;SDS011;54079;44.540;18.784;2022-07-10T06:52:48;11.10;;;9.98;;
55776;SDS011;54079;44.540;18.784;2022-07-10T06:55:14;6.10;;;5.53;;
55776;SDS011;54079;44.540;18.784;2022-07-10T06:57:41;4.75;;;3.90;;
55776;SDS011;54079;44.540;18.784;2022-07-10T07:00:07;6.60;;;5.13;;
55776;SDS011;54079;44.540;18.784;2022-07-10T07:02:34;22.20;;;20.13;;
55776;SDS011;54079;44.540;18.784;2022-07-10T07:05:01;8.50;;;7.68;;
55776;SDS011;54079;44.540;18.784;2022-07-10T07:07:27;20.92;;;19.13;;
55776;SDS011;54079;44.540;18.784;2022-07-10T07:09:53;18.50;;;16.80;;
55776;SDS011;54079;44.540;18.784;2022-07-10T07:12:19;15.77;;;14.18;;
55776;SDS011;54079;44.540;18.784;2022-07-10T07:14:45;16.35;;;14.88;;
55776;SDS011;54079;44.540;18.784;2022-07-10T07:17:12;11.75;;;10.68;;
55776;SDS011;54079;44.540;18.784;2022-07-10T07:19:40;16.77;;;15.23;;
55776;SDS011;54079;44.540;18.784;2022-07-10T07:22:25;7.47;;;6.07;;
55776;SDS011;54079;44.540;18.784;2022-07-10T07:25:09;6.68;;;5.95;;
55776;SDS011;54079;44.540;18.784;2022-07-10T07:27:37;7.38;;;6.35;;
55776;SDS011;54079;44.540;18.784;2022-07-10T07:30:04;10.10;;;9.13;;
55776;SDS011;54079;44.540;18.784;2022-07-10T07:32:40;26.45;;;23.88;;
55776;SDS011;54079;44.540;18.784;2022-07-10T07:35:07;22.55;;;20.40;;
55776;SDS011;54079;44.540;18.784;2022-07-10T07:37:37;28.73;;;26.10;;
55776;SDS011;54079;44.540;18.784;2022-07-10T07:40:04;27.85;;;25.33;;
55776;SDS011;54079;44.540;18.784;2022-07-10T07:42:31;27.77;;;25.40;;
55776;SDS011;54079;44.540;18.784;2022-07-10T07:44:57;23.33;;;21.17;;
55776;SDS011;54079;44.540;18.784;2022-07-10T07:47:23;18.77;;;17.10;;
55776;SDS011;54079;44.540;18.784;2022-07-10T07:49:49;15.27;;;13.88;;
55776;SDS011;54079;44.540;18.784;2022-07-10T07:52:14;16.35;;;14.82;;
55776;SDS011;54079;44.540;18.784;2022-07-10T07:54:40;9.07;;;8.10;;
55776;SDS011;54079;44.540;18.784;2022-07-10T07:57:06;11.35;;;10.40;;
55776;SDS011;54079;44.540;18.784;2022-07-10T07:59:33;10.25;;;9.35;;
55776;SDS011;54079;44.540;18.784;2022-07-10T08:01:59;13.10;;;11.98;;
55776;SDS011;54079;44.540;18.784;2022-07-10T08:04:25;15.82;;;14.32;;
55776;SDS011;54079;44.540;18.784;2022-07-10T08:06:50;21.02;;;19.17;;
55776;SDS011;54079;44.540;18.784;2022-07-10T08:09:20;18.60;;;16.92;;
55776;SDS011;54079;44.540;18.784;2022-07-10T08:11:46;14.43;;;13.05;;
55776;SDS011;54079;44.540;18.784;2022-07-10T08:14:12;9.68;;;8.85;;
55776;SDS011;54079;44.540;18.784;2022-07-10T08:16:39;12.30;;;11.30;;
55776;SDS011;54079;44.540;18.784;2022-07-10T08:19:05;9.13;;;8.32;;
55776;SDS011;54079;44.540;18.784;2022-07-10T08:21:31;7.45;;;6.80;;
55776;SDS011;54079;44.540;18.784;2022-07-10T08:23:59;8.73;;;8.00;;
55776;SDS011;54079;44.540;18.784;2022-07-10T08:26:25;8.35;;;7.65;;
55776;SDS011;54079;44.540;18.784;2022-07-10T08:28:51;10.45;;;9.65;;
55776;SDS011;54079;44.540;18.784;2022-07-10T08:31:17;12.63;;;11.70;;
55776;SDS011;54079;44.540;18.784;2022-07-10T08:33:43;11.30;;;10.45;;
55776;SDS011;54079;44.540;18.784;2022-07-10T08:36:09;15.52;;;14.40;;
55776;SDS011;54079;44.540;18.784;2022-07-10T08:38:35;13.55;;;12.45;;
55776;SDS011;54079;44.540;18.784;2022-07-10T08:41:01;13.07;;;12.05;;
55776;SDS011;54079;44.540;18.784;2022-07-10T08:43:30;10.52;;;9.82;;
55776;SDS011;54079;44.540;18.784;2022-07-10T08:45:56;6.25;;;5.75;;
55776;SDS011;54079;44.540;18.784;2022-07-10T08:48:23;10.20;;;9.40;;
55776;SDS011;54079;44.540;18.784;2022-07-10T08:50:53;16.95;;;15.65;;
55776;SDS011;54079;44.540;18.784;2022-07-10T08:53:23;17.35;;;15.95;;
55776;SDS011;54079;44.540;18.784;2022-07-10T08:55:55;21.38;;;19.67;;
55776;SDS011;54079;44.540;18.784;2022-07-10T08:58:22;6.18;;;5.75;;
55776;SDS011;54079;44.540;18.784;2022-07-10T09:00:49;11.07;;;10.20;;
55776;SDS011;54079;44.540;18.784;2022-07-10T09:03:15;11.93;;;10.77;;
55776;SDS011;54079;44.540;18.784;2022-07-10T09:05:41;6.47;;;5.97;;
55776;SDS011;54079;44.540;18.784;2022-07-10T09:08:23;9.60;;;8.80;;
55776;SDS011;54079;44.540;18.784;2022-07-10T09:10:49;7.43;;;6.80;;
55776;SDS011;54079;44.540;18.784;2022-07-10T09:13:16;4.53;;;4.22;;
55776;SDS011;54079;44.540;18.784;2022-07-10T09:15:47;6.00;;;5.50;;
55776;SDS011;54079;44.540;18.784;2022-07-10T09:18:17;4.53;;;4.13;;
55776;SDS011;54079;44.540;18.784;2022-07-10T09:20:47;3.13;;;2.92;;
55776;SDS011;54079;44.540;18.784;2022-07-10T09:23:20;2.67;;;2.33;;
55776;SDS011;54079;44.540;18.784;2022-07-10T09:25:48;0.80;;;0.80;;
55776;SDS011;54079;44.540;18.784;2022-07-10T09:28:17;3.63;;;3.25;;
55776;SDS011;54079;44.540;18.784;2022-07-10T09:30:44;3.33;;;3.03;;
55776;SDS011;54079;44.540;18.784;2022-07-10T09:33:23;1.98;;;1.67;;
55776;SDS011;54079;44.540;18.784;2022-07-10T09:41:19;1.50;;;1.40;;
55776;SDS011;54079;44.540;18.784;2022-07-10T09:43:47;8.27;;;7.47;;
55776;SDS011;54079;44.540;18.784;2022-07-10T09:46:15;5.75;;;4.57;;
55776;SDS011;54079;44.540;18.784;2022-07-10T09:48:41;3.80;;;3.17;;
55776;SDS011;54079;44.540;18.784;2022-07-10T09:51:08;3.47;;;3.17;;
55776;SDS011;54079;44.540;18.784;2022-07-10T09:56:06;14.00;;;12.77;;
55776;SDS011;54079;44.540;18.784;2022-07-10T09:58:36;11.40;;;10.35;;
55776;SDS011;54079;44.540;18.784;2022-07-10T10:01:03;16.77;;;15.00;;
55776;SDS011;54079;44.540;18.784;2022-07-10T10:03:37;11.88;;;10.77;;
55776;SDS011;54079;44.540;18.784;2022-07-10T10:08:50;7.75;;;7.05;;
55776;SDS011;54079;44.540;18.784;2022-07-10T10:11:21;1.70;;;1.60;;
55776;SDS011;54079;44.540;18.784;2022-07-10T10:13:51;2.25;;;2.05;;
55776;SDS011;54079;44.540;18.784;2022-07-10T10:16:21;1.77;;;1.67;;
55776;SDS011;54079;44.540;18.784;2022-07-10T10:18:48;1.48;;;0.47;;
55776;SDS011;54079;44.540;18.784;2022-07-10T10:21:34;2.03;;;1.85;;
55776;SDS011;54079;44.540;18.784;2022-07-10T10:24:01;1.30;;;1.20;;
55776;SDS011;54079;44.540;18.784;2022-07-10T10:26:27;3.30;;;3.00;;
55776;SDS011;54079;44.540;18.784;2022-07-10T10:28:54;5.20;;;4.80;;
55776;SDS011;54079;44.540;18.784;2022-07-10T10:31:24;4.07;;;3.72;;
55776;SDS011;54079;44.540;18.784;2022-07-10T10:33:54;3.55;;;3.28;;
55776;SDS011;54079;44.540;18.784;2022-07-10T10:49:19;2.60;;;2.40;;
55776;SDS011;54079;44.540;18.784;2022-07-10T10:54:25;2.97;;;2.72;;
55776;SDS011;54079;44.540;18.784;2022-07-10T11:07:51;8.15;;;7.35;;
55776;SDS011;54079;44.540;18.784;2022-07-10T11:10:28;4.90;;;4.55;;
55776;SDS011;54079;44.540;18.784;2022-07-10T11:13:02;5.07;;;4.60;;
55776;SDS011;54079;44.540;18.784;2022-07-10T11:15:30;4.53;;;4.18;;
55776;SDS011;54079;44.540;18.784;2022-07-10T11:18:19;4.53;;;4.10;;
55776;SDS011;54079;44.540;18.784;2022-07-10T11:20:51;2.05;;;1.83;;
55776;SDS011;54079;44.540;18.784;2022-07-10T11:23:37;4.68;;;4.28;;
55776;SDS011;54079;44.540;18.784;2022-07-10T11:26:43;8.02;;;6.90;;
55776;SDS011;54079;44.540;18.784;2022-07-10T11:29:20;4.28;;;3.88;;
55776;SDS011;54079;44.540;18.784;2022-07-10T11:31:55;2.50;;;2.30;;
55776;SDS011;54079;44.540;18.784;2022-07-10T11:34:21;3.67;;;3.30;;
55776;SDS011;54079;44.540;18.784;2022-07-10T11:36:48;5.25;;;1.80;;
55776;SDS011;54079;44.540;18.784;2022-07-10T11:39:14;2.17;;;2.00;;
55776;SDS011;54079;44.540;18.784;2022-07-10T11:41:44;1.90;;;1.70;;
55776;SDS011;54079;44.540;18.784;2022-07-10T11:44:14;1.60;;;1.50;;
55776;SDS011;54079;44.540;18.784;2022-07-10T11:46:41;0.50;;;0.50;;
55776;SDS011;54079;44.540;18.784;2022-07-10T11:49:09;1.83;;;1.02;;
55776;SDS011;54079;44.540;18.784;2022-07-10T11:51:36;1.10;;;1.00;;
55776;SDS011;54079;44.540;18.784;2022-07-10T11:54:11;0.90;;;0.90;;
55776;SDS011;54079;44.540;18.784;2022-07-10T11:56:48;1.08;;;0.98;;
55776;SDS011;54079;44.540;18.784;2022-07-10T11:59:26;0.90;;;0.90;;
55776;SDS011;54079;44.540;18.784;2022-07-10T12:01:53;0.85;;;0.85;;
55776;SDS011;54079;44.540;18.784;2022-07-10T12:04:22;1.10;;;0.98;;
55776;SDS011;54079;44.540;18.784;2022-07-10T12:06:52;2.30;;;2.13;;
55776;SDS011;54079;44.540;18.784;2022-07-10T12:09:20;3.40;;;3.13;;
55776;SDS011;54079;44.540;18.784;2022-07-10T12:12:00;3.50;;;3.20;;
55776;SDS011;54079;44.540;18.784;2022-07-10T12:14:31;8.20;;;7.50;;
55776;SDS011;54079;44.540;18.784;2022-07-10T12:16:58;1.48;;;1.10;;
55776;SDS011;54079;44.540;18.784;2022-07-10T12:22:04;3.63;;;3.33;;
55776;SDS011;54079;44.540;18.784;2022-07-10T12:24:30;2.75;;;2.55;;
55776;SDS011;54079;44.540;18.784;2022-07-10T12:26:57;3.35;;;3.13;;
55776;SDS011;54079;44.540;18.784;2022-07-10T12:29:29;3.45;;;3.15;;
55776;SDS011;54079;44.540;18.784;2022-07-10T12:31:59;2.13;;;1.92;;
55776;SDS011;54079;44.540;18.784;2022-07-10T12:34:33;2.40;;;2.20;;
55776;SDS011;54079;44.540;18.784;2022-07-10T12:37:12;2.65;;;2.30;;
55776;SDS011;54079;44.540;18.784;2022-07-10T12:39:49;3.83;;;2.92;;
55776;SDS011;54079;44.540;18.784;2022-07-10T12:42:25;5.57;;;4.82;;
55776;SDS011;54079;44.540;18.784;2022-07-10T12:45:08;3.35;;;3.08;;
55776;SDS011;54079;44.540;18.784;2022-07-10T12:47:44;5.93;;;5.32;;
55776;SDS011;54079;44.540;18.784;2022-07-10T12:50:12;4.38;;;3.97;;
55776;SDS011;54079;44.540;18.784;2022-07-10T12:52:39;3.55;;;3.25;;
55776;SDS011;54079;44.540;18.784;2022-07-10T12:57:44;2.20;;;1.88;;
55776;SDS011;54079;44.540;18.784;2022-07-10T13:00:27;3.00;;;1.88;;
55776;SDS011;54079;44.540;18.784;2022-07-10T13:05:34;5.68;;;5.07;;
55776;SDS011;54079;44.540;18.784;2022-07-10T13:08:10;6.50;;;5.97;;
55776;SDS011;54079;44.540;18.784;2022-07-10T13:10:47;6.28;;;5.28;;
55776;SDS011;54079;44.540;18.784;2022-07-10T13:13:18;3.00;;;2.70;;
55776;SDS011;54079;44.540;18.784;2022-07-10T13:15:44;3.95;;;3.17;;
55776;SDS011;54079;44.540;18.784;2022-07-10T13:18:22;1.73;;;1.63;;
55776;SDS011;54079;44.540;18.784;2022-07-10T13:20:50;3.00;;;2.35;;
55776;SDS011;54079;44.540;18.784;2022-07-10T13:23:17;1.33;;;1.15;;
55776;SDS011;54079;44.540;18.784;2022-07-10T13:25:46;1.42;;;1.33;;
55776;SDS011;54079;44.540;18.784;2022-07-10T13:28:14;1.98;;;1.17;;
55776;SDS011;54079;44.540;18.784;2022-07-10T13:30:41;1.55;;;1.40;;
55776;SDS011;54079;44.540;18.784;2022-07-10T13:33:08;0.98;;;0.88;;
55776;SDS011;54079;44.540;18.784;2022-07-10T13:35:34;2.42;;;1.45;;
55776;SDS011;54079;44.540;18.784;2022-07-10T13:38:01;1.02;;;0.95;;
55776;SDS011;54079;44.540;18.784;2022-07-10T13:40:32;0.80;;;0.80;;
55776;SDS011;54079;44.540;18.784;2022-07-10T13:43:00;1.35;;;0.63;;
55776;SDS011;54079;44.540;18.784;2022-07-10T13:45:26;0.80;;;0.80;;
55776;SDS011;54079;44.540;18.784;2022-07-10T13:47:58;0.80;;;0.80;;
55776;SDS011;54079;44.540;18.784;2022-07-10T13:50:24;0.65;;;0.65;;
55776;SDS011;54079;44.540;18.784;2022-07-10T13:52:50;0.60;;;0.50;;
55776;SDS011;54079;44.540;18.784;2022-07-10T13:55:17;0.77;;;0.40;;
55776;SDS011;54079;44.540;18.784;2022-07-10T13:57:43;0.55;;;0.55;;
55776;SDS011;54079;44.540;18.784;2022-07-10T14:00:09;1.75;;;0.60;;
55776;SDS011;54079;44.540;18.784;2022-07-10T14:02:36;1.02;;;0.68;;
55776;SDS011;54079;44.540;18.784;2022-07-10T14:05:03;1.17;;;0.60;;
55776;SDS011;54079;44.540;18.784;2022-07-10T14:07:29;0.93;;;0.63;;
55776;SDS011;54079;44.540;18.784;2022-07-10T14:09:55;1.02;;;0.88;;
55776;SDS011;54079;44.540;18.784;2022-07-10T14:12:21;0.90;;;0.90;;
55776;SDS011;54079;44.540;18.784;2022-07-10T14:14:47;0.90;;;0.90;;
55776;SDS011;54079;44.540;18.784;2022-07-10T14:17:13;0.70;;;0.63;;
55776;SDS011;54079;44.540;18.784;2022-07-10T14:19:39;0.60;;;0.60;;
55776;SDS011;54079;44.540;18.784;2022-07-10T14:22:06;1.15;;;1.05;;
55776;SDS011;54079;44.540;18.784;2022-07-10T14:24:32;1.25;;;0.90;;
55776;SDS011;54079;44.540;18.784;2022-07-10T14:26:59;0.57;;;0.35;;
55776;SDS011;54079;44.540;18.784;2022-07-10T14:29:25;0.63;;;0.63;;
55776;SDS011;54079;44.540;18.784;2022-07-10T14:31:51;0.90;;;0.90;;
55776;SDS011;54079;44.540;18.784;2022-07-10T14:34:20;1.38;;;0.68;;
55776;SDS011;54079;44.540;18.784;2022-07-10T14:36:49;1.63;;;0.88;;
55776;SDS011;54079;44.540;18.784;2022-07-10T14:39:16;0.50;;;0.50;;
55776;SDS011;54079;44.540;18.784;2022-07-10T14:41:42;0.50;;;0.50;;
55776;SDS011;54079;44.540;18.784;2022-07-10T14:44:08;0.45;;;0.45;;
55776;SDS011;54079;44.540;18.784;2022-07-10T14:46:34;0.80;;;0.70;;
55776;SDS011;54079;44.540;18.784;2022-07-10T14:49:00;0.90;;;0.73;;
55776;SDS011;54079;44.540;18.784;2022-07-10T14:51:26;1.55;;;0.82;;
55776;SDS011;54079;44.540;18.784;2022-07-10T14:53:53;1.00;;;0.98;;
55776;SDS011;54079;44.540;18.784;2022-07-10T14:56:21;0.80;;;0.57;;
55776;SDS011;54079;44.540;18.784;2022-07-10T14:58:48;1.10;;;0.93;;
55776;SDS011;54079;44.540;18.784;2022-07-10T15:01:14;0.70;;;0.70;;
55776;SDS011;54079;44.540;18.784;2022-07-10T15:03:41;1.10;;;1.00;;
55776;SDS011;54079;44.540;18.784;2022-07-10T15:06:07;1.55;;;1.45;;
55776;SDS011;54079;44.540;18.784;2022-07-10T15:08:34;0.95;;;0.70;;
55776;SDS011;54079;44.540;18.784;2022-07-10T15:11:00;1.92;;;0.88;;
55776;SDS011;54079;44.540;18.784;2022-07-10T15:13:26;2.25;;;0.98;;
55776;SDS011;54079;44.540;18.784;2022-07-10T15:15:52;1.10;;;0.80;;
55776;SDS011;54079;44.540;18.784;2022-07-10T15:18:18;0.57;;;0.52;;
55776;SDS011;54079;44.540;18.784;2022-07-10T15:20:44;0.90;;;0.70;;